Данни от 17.08.2018 г. 13:04:53

Температура вътрешна: 26.9 °C
Температура външна: 28.5 °C
Атмосферно налягане: 997.0 hPa
Атмосферно налягане на морско равнище: 1014.8 hPa
Влажност: 53.4 %



История от последните 24 часа

Дата и часTin [°C]P [hPa]Psl [hPa]H [%]Tout [°C]
   17.08.2018 г. 13:00:53      26.9      997.0      1014.8      52.9      28.4   
   17.08.2018 г. 12:30:53      26.9      997.3      1015.1      53.0      27.8   
   17.08.2018 г. 12:00:53      26.8      997.4      1015.2      52.8      27.3   
   17.08.2018 г. 11:30:53      26.8      997.6      1015.5      52.1      26.6   
   17.08.2018 г. 11:00:53      26.7      997.8      1015.6      53.4      25.9   
   17.08.2018 г. 10:30:53      26.7      997.7      1015.5      51.6      25.1   
   17.08.2018 г. 10:00:53      26.6      997.6      1015.4      52.3      24.5   
   17.08.2018 г. 09:30:53      26.5      997.4      1015.2      52.0      23.8   
   17.08.2018 г. 09:00:54      26.5      997.4      1015.2      52.2      22.6   
   17.08.2018 г. 08:30:53      26.4      997.3      1015.1      52.2      21.9   
   17.08.2018 г. 08:00:53      26.1      997.3      1015.1      51.6      21.3   
   17.08.2018 г. 07:30:53      26.0      997.1      1014.9      53.3      20.8   
   17.08.2018 г. 07:00:54      26.1      996.8      1014.6      52.9      21.0   
   17.08.2018 г. 06:30:53      26.1      996.6      1014.4      53.1      21.4   
   17.08.2018 г. 06:00:54      26.2      996.4      1014.2      53.1      21.6   
   17.08.2018 г. 05:30:53      26.1      996.2      1014.0      52.5      21.6   
   17.08.2018 г. 05:00:53      26.3      996.2      1014.0      53.2      22.3   
   17.08.2018 г. 04:30:53      26.3      996.2      1014.0      52.6      22.1   
   17.08.2018 г. 04:00:53      26.3      996.1      1013.9      52.8      22.9   
   17.08.2018 г. 03:30:53      26.4      996.1      1013.9      52.1      23.0   
   17.08.2018 г. 03:00:53      26.3      996.0      1013.8      51.9      23.0   
   17.08.2018 г. 02:30:53      26.2      995.9      1013.7      51.6      23.8   
   17.08.2018 г. 02:00:53      26.5      995.8      1013.5      51.8      24.4   
   17.08.2018 г. 01:30:53      26.6      995.8      1013.6      51.1      25.1   
   17.08.2018 г. 01:00:53      26.7      995.7      1013.5      51.1      25.0   
   17.08.2018 г. 00:30:53      26.8      995.8      1013.5      51.4      25.5   
   17.08.2018 г. 00:00:53      27.0      995.7      1013.5      52.0      26.3   
   16.08.2018 г. 23:30:53      27.0      995.6      1013.3      52.2      27.1   
   16.08.2018 г. 23:00:53      27.0      995.4      1013.2      51.8      26.9   
   16.08.2018 г. 22:30:53      27.0      995.4      1013.2      51.7      28.5   
   16.08.2018 г. 22:00:53      27.0      995.5      1013.2      51.3      29.0   
   16.08.2018 г. 21:30:53      26.9      995.5      1013.3      51.2      29.4   
   16.08.2018 г. 21:00:53      26.8      994.9      1012.6      50.6      29.6   
   16.08.2018 г. 20:30:54      26.8      994.7      1012.4      50.0      30.4   
   16.08.2018 г. 20:00:53      26.7      994.6      1012.3      49.3      32.8   
   16.08.2018 г. 19:30:54      26.7      994.5      1012.3      49.1      34.0   
   16.08.2018 г. 19:00:53      26.6      994.4      1012.2      49.2      34.6   
   16.08.2018 г. 18:30:54      26.6      994.5      1012.2      48.9      35.5   
   16.08.2018 г. 18:00:53      26.5      994.7      1012.4      49.2      36.4   
   16.08.2018 г. 17:30:54      26.5      994.8      1012.5      49.0      37.6   
   16.08.2018 г. 17:00:53      26.5      994.9      1012.6      48.8      36.4   
   16.08.2018 г. 16:30:54      26.4      995.0      1012.8      49.7      35.2   
   16.08.2018 г. 16:00:53      26.3      995.2      1013.0      48.9      34.0   
   16.08.2018 г. 15:30:54      26.3      995.5      1013.2      49.5      32.8   
   16.08.2018 г. 15:00:53      26.2      995.8      1013.6      49.5      31.6   
   16.08.2018 г. 14:30:53      26.2      996.0      1013.8      49.8      30.4   
   16.08.2018 г. 14:00:53      26.2      996.2      1014.0      49.8      29.6   
   16.08.2018 г. 13:30:53      26.2      996.4      1014.2      50.1      28.9   

BaroSL graphic

TEMPE graphic